createdAt,value
2018-10-09T00:01:36.073Z,12.84
2018-10-09T00:04:04.110Z,12.84
2018-10-09T00:06:31.991Z,12.86
2018-10-09T00:08:59.906Z,12.84
2018-10-09T00:11:27.704Z,12.85
2018-10-09T00:14:02.608Z,12.83
2018-10-09T00:16:30.497Z,12.74
2018-10-09T00:18:58.322Z,12.77
2018-10-09T00:21:26.437Z,12.78
2018-10-09T00:23:54.303Z,12.72
2018-10-09T00:26:22.092Z,12.70
2018-10-09T00:28:49.970Z,12.66
2018-10-09T00:31:17.851Z,12.54
2018-10-09T00:33:45.676Z,12.58
2018-10-09T00:36:16.947Z,12.53
2018-10-09T00:38:44.831Z,12.40
2018-10-09T00:41:12.757Z,12.41
2018-10-09T00:43:40.604Z,12.24
2018-10-09T00:46:08.500Z,12.28
2018-10-09T00:48:36.386Z,12.22
2018-10-09T00:51:04.579Z,12.13
2018-10-09T00:53:32.424Z,11.97
2018-10-09T00:56:00.722Z,12.03
2018-10-09T00:58:28.591Z,11.99
2018-10-09T01:00:56.826Z,11.98
2018-10-09T01:03:24.627Z,11.90
2018-10-09T01:05:52.752Z,11.87
2018-10-09T01:08:20.620Z,11.88
2018-10-09T01:10:48.534Z,11.94
2018-10-09T01:13:16.380Z,11.99
2018-10-09T01:15:44.547Z,12.06
2018-10-09T01:18:12.426Z,11.97
2018-10-09T01:20:40.343Z,11.97
2018-10-09T01:23:08.131Z,11.98
2018-10-09T01:25:36.083Z,11.99
2018-10-09T01:28:03.967Z,12.00
2018-10-09T01:30:32.728Z,11.98
2018-10-09T01:33:01.107Z,11.94
2018-10-09T01:35:28.915Z,11.91
2018-10-09T01:37:56.867Z,11.92
2018-10-09T01:40:25.436Z,11.96
2018-10-09T01:42:53.319Z,11.93
2018-10-09T01:45:21.195Z,11.88
2018-10-09T01:47:49.155Z,11.89
2018-10-09T01:50:17.100Z,11.89
2018-10-09T01:52:45.203Z,11.85
2018-10-09T01:55:13.031Z,11.96
2018-10-09T01:57:40.957Z,11.84
2018-10-09T02:00:09.588Z,11.86
2018-10-09T02:02:37.512Z,11.85
2018-10-09T02:05:05.727Z,11.73
2018-10-09T02:07:33.825Z,11.73
2018-10-09T02:10:01.769Z,11.75
2018-10-09T02:12:30.067Z,11.80
2018-10-09T02:14:58.186Z,11.79
2018-10-09T02:17:26.055Z,11.67
2018-10-09T02:19:53.881Z,11.75
2018-10-09T02:22:21.753Z,11.63
2018-10-09T02:24:49.619Z,11.48
2018-10-09T02:27:17.650Z,11.42
2018-10-09T02:29:45.484Z,11.36
2018-10-09T02:32:13.360Z,11.39
2018-10-09T02:34:41.142Z,11.37
2018-10-09T02:37:09.067Z,11.40
2018-10-09T02:39:36.863Z,11.41
2018-10-09T02:42:04.679Z,11.16
2018-10-09T02:44:32.521Z,11.02
2018-10-09T02:47:00.359Z,11.01
2018-10-09T02:49:28.198Z,10.72
2018-10-09T02:51:55.986Z,10.55
2018-10-09T02:54:24.055Z,10.45
2018-10-09T02:56:51.859Z,10.41
2018-10-09T02:59:19.755Z,10.39
2018-10-09T03:01:47.674Z,10.43
2018-10-09T03:04:15.503Z,10.48
2018-10-09T03:06:43.315Z,10.50
2018-10-09T03:09:11.100Z,10.49
2018-10-09T03:11:38.878Z,10.57
2018-10-09T03:14:06.835Z,10.64
2018-10-09T03:16:34.639Z,10.69
2018-10-09T03:19:02.510Z,10.75
2018-10-09T03:21:30.313Z,10.60
2018-10-09T03:23:58.114Z,10.50
2018-10-09T03:26:25.867Z,10.42
2018-10-09T03:28:53.684Z,10.35
2018-10-09T03:31:21.459Z,10.42
2018-10-09T03:33:49.591Z,10.39
2018-10-09T03:36:17.354Z,10.41
2018-10-09T03:38:45.133Z,10.45
2018-10-09T03:41:12.919Z,10.53
2018-10-09T03:43:40.776Z,10.65
2018-10-09T03:46:08.603Z,10.63
2018-10-09T03:48:36.755Z,10.68
2018-10-09T03:51:04.601Z,10.70
2018-10-09T03:53:32.736Z,10.72
2018-10-09T03:56:00.795Z,10.76
2018-10-09T03:58:28.588Z,10.79
2018-10-09T04:00:56.398Z,10.82
2018-10-09T04:03:24.195Z,10.83
2018-10-09T04:05:52.014Z,10.79
2018-10-09T04:08:19.827Z,10.79
2018-10-09T04:10:47.570Z,10.80
2018-10-09T04:13:15.343Z,10.73
2018-10-09T04:15:43.223Z,10.64
2018-10-09T04:18:11.087Z,10.68
2018-10-09T04:20:38.899Z,10.68
2018-10-09T04:23:06.704Z,10.71
2018-10-09T04:25:34.565Z,10.72
2018-10-09T04:28:02.412Z,10.70
2018-10-09T04:30:30.183Z,10.67
2018-10-09T04:32:58.123Z,10.65
2018-10-09T04:35:25.975Z,10.63
2018-10-09T04:37:53.855Z,10.65
2018-10-09T04:40:21.738Z,10.70
2018-10-09T04:42:49.510Z,10.72
2018-10-09T04:45:17.352Z,10.59
2018-10-09T04:47:45.190Z,10.55
2018-10-09T04:50:12.945Z,10.53
2018-10-09T04:52:40.807Z,10.34
2018-10-09T04:55:08.595Z,10.31
2018-10-09T04:57:36.630Z,10.27
2018-10-09T05:00:04.498Z,10.29
2018-10-09T05:02:32.282Z,10.32
2018-10-09T05:05:00.374Z,10.33
2018-10-09T05:07:28.134Z,10.37
2018-10-09T05:09:55.899Z,10.37
2018-10-09T05:12:23.714Z,10.40
2018-10-09T05:14:51.526Z,10.42
2018-10-09T05:17:19.663Z,10.44
2018-10-09T05:19:47.468Z,10.46
2018-10-09T05:22:15.263Z,10.47
2018-10-09T05:24:43.047Z,10.50
2018-10-09T05:27:10.811Z,10.51
2018-10-09T05:29:38.578Z,10.52
2018-10-09T05:32:06.542Z,10.51
2018-10-09T05:34:34.384Z,10.41
2018-10-09T05:37:02.158Z,10.38
2018-10-09T05:39:30.020Z,10.36
2018-10-09T05:41:57.926Z,10.33
2018-10-09T05:44:26.187Z,10.26
2018-10-09T05:46:53.875Z,10.25
2018-10-09T05:49:21.675Z,10.25
2018-10-09T05:51:49.438Z,10.36
2018-10-09T05:54:17.227Z,10.38
2018-10-09T05:56:45.022Z,10.38
2018-10-09T05:59:12.827Z,10.39
2018-10-09T06:01:40.603Z,10.45
2018-10-09T06:04:08.546Z,10.52
2018-10-09T06:06:36.367Z,10.55
2018-10-09T06:09:07.014Z,10.59
2018-10-09T06:11:34.771Z,10.61
2018-10-09T06:14:02.582Z,10.67
2018-10-09T06:16:30.375Z,10.70
2018-10-09T06:18:58.219Z,10.78
2018-10-09T06:21:26.113Z,10.81
2018-10-09T06:23:53.896Z,10.82
2018-10-09T06:26:21.746Z,10.87
2018-10-09T06:28:50.583Z,10.97
2018-10-09T06:31:18.407Z,11.06
2018-10-09T06:33:46.249Z,11.16
2018-10-09T06:36:14.011Z,11.34
2018-10-09T06:38:41.796Z,11.51
2018-10-09T06:41:09.549Z,11.66
2018-10-09T06:43:37.424Z,11.83
2018-10-09T06:46:05.242Z,11.99
2018-10-09T06:48:33.043Z,12.19
2018-10-09T06:51:00.979Z,12.35
2018-10-09T06:53:28.912Z,12.40
2018-10-09T06:55:56.591Z,12.54
2018-10-09T06:58:24.405Z,12.81
2018-10-09T07:00:52.228Z,13.15
2018-10-09T07:03:20.029Z,13.51
2018-10-09T07:05:47.819Z,13.83
2018-10-09T07:08:15.620Z,14.07
2018-10-09T07:10:43.567Z,14.61
2018-10-09T07:13:11.351Z,15.13
2018-10-09T07:15:39.132Z,15.43
2018-10-09T07:18:06.951Z,15.19
2018-10-09T07:20:34.740Z,15.26
2018-10-09T07:23:02.669Z,15.35
2018-10-09T07:25:30.442Z,15.36
2018-10-09T07:27:58.296Z,15.47
2018-10-09T07:30:26.005Z,15.68
2018-10-09T07:32:53.802Z,15.25
2018-10-09T07:35:21.560Z,15.03
2018-10-09T07:37:49.326Z,15.15
2018-10-09T07:40:17.118Z,14.93
2018-10-09T07:42:44.953Z,14.39
2018-10-09T07:45:12.811Z,14.24
2018-10-09T07:47:40.594Z,14.02
2018-10-09T07:50:08.411Z,13.68
2018-10-09T07:52:36.142Z,13.42
2018-10-09T07:55:03.951Z,13.55
2018-10-09T07:57:31.992Z,13.71
2018-10-09T07:59:59.743Z,13.73
2018-10-09T08:02:27.543Z,13.59
2018-10-09T08:04:55.452Z,13.53
2018-10-09T08:07:23.231Z,13.62
2018-10-09T08:09:50.995Z,13.79
2018-10-09T08:12:18.810Z,13.88
2018-10-09T08:14:46.627Z,13.82
2018-10-09T08:17:14.408Z,13.73
2018-10-09T08:19:42.302Z,13.68
2018-10-09T08:22:10.130Z,13.52
2018-10-09T08:24:37.960Z,13.43
2018-10-09T08:27:05.799Z,13.45
2018-10-09T08:29:33.572Z,13.47
2018-10-09T08:32:01.347Z,13.58
2018-10-09T08:34:29.284Z,13.73
2018-10-09T08:36:57.068Z,13.76
2018-10-09T08:39:24.907Z,13.85
2018-10-09T08:41:52.739Z,14.05
2018-10-09T08:44:20.607Z,13.99
2018-10-09T08:46:48.443Z,13.95
2018-10-09T08:49:16.735Z,13.91
2018-10-09T08:51:44.932Z,14.00
2018-10-09T08:54:12.773Z,14.09
2018-10-09T08:56:40.640Z,14.36
2018-10-09T08:59:08.799Z,14.73
2018-10-09T09:01:36.632Z,15.01
2018-10-09T09:04:04.559Z,15.43
2018-10-09T09:06:32.675Z,15.81
2018-10-09T09:09:00.796Z,16.00
2018-10-09T09:11:28.614Z,16.23
2018-10-09T09:13:56.527Z,16.87
2018-10-09T09:16:24.391Z,17.73
2018-10-09T09:18:52.288Z,18.62
2018-10-09T09:21:20.132Z,19.35
2018-10-09T09:23:47.887Z,19.20
2018-10-09T09:26:15.848Z,19.19
2018-10-09T09:28:43.619Z,19.34
2018-10-09T09:31:11.411Z,19.28
2018-10-09T09:33:39.221Z,19.95
2018-10-09T09:36:07.059Z,20.51
2018-10-09T09:38:34.850Z,19.70
2018-10-09T09:41:03.087Z,19.59
2018-10-09T09:43:30.918Z,19.08
2018-10-09T09:48:33.332Z,20.94
2018-10-09T09:51:01.311Z,21.04
2018-10-09T09:53:29.150Z,20.66
2018-10-09T09:55:57.043Z,20.18
2018-10-09T09:58:25.046Z,19.60
2018-10-09T10:00:57.535Z,19.27
2018-10-09T10:03:26.128Z,19.82
2018-10-09T10:05:53.959Z,20.13
2018-10-09T10:08:21.744Z,20.38
2018-10-09T10:10:49.625Z,20.66
2018-10-09T10:13:17.452Z,21.20
2018-10-09T10:15:45.258Z,21.22
2018-10-09T10:18:13.241Z,21.68
2018-10-09T10:20:41.059Z,21.56
2018-10-09T10:23:09.449Z,21.30
2018-10-09T10:25:37.943Z,21.44
2018-10-09T10:28:06.003Z,21.79
2018-10-09T10:30:33.810Z,21.74
2018-10-09T10:33:01.867Z,22.04
2018-10-09T10:35:29.632Z,22.78
2018-10-09T10:37:57.463Z,22.76
2018-10-09T10:40:25.329Z,22.31
2018-10-09T10:42:53.099Z,22.17
2018-10-09T10:45:20.900Z,21.35
2018-10-09T10:47:48.684Z,21.59
2018-10-09T10:50:16.815Z,21.30
2018-10-09T10:52:44.707Z,21.71
2018-10-09T10:55:12.492Z,21.71
2018-10-09T10:57:40.329Z,22.23
2018-10-09T11:00:08.232Z,22.36
2018-10-09T11:02:36.092Z,22.41
2018-10-09T11:05:03.981Z,22.85
2018-10-09T11:07:31.927Z,22.16
2018-10-09T11:09:59.763Z,22.13
2018-10-09T11:12:27.985Z,22.32
2018-10-09T11:14:56.190Z,22.65
2018-10-09T11:17:24.091Z,23.21
2018-10-09T11:19:52.143Z,24.20
2018-10-09T11:22:20.245Z,24.34
2018-10-09T11:24:55.030Z,24.40
2018-10-09T11:27:22.812Z,24.49
2018-10-09T11:29:50.968Z,23.95
2018-10-09T11:32:18.783Z,24.07
2018-10-09T11:34:46.682Z,24.12
2018-10-09T11:37:14.490Z,24.07
2018-10-09T11:39:42.397Z,24.11
2018-10-09T11:42:10.505Z,24.74
2018-10-09T11:44:38.355Z,24.42
2018-10-09T11:47:06.465Z,24.55
2018-10-09T11:49:34.340Z,24.01
2018-10-09T11:52:02.149Z,24.01
2018-10-09T11:54:30.243Z,24.97
2018-10-09T11:56:58.104Z,24.80
2018-10-09T11:59:26.044Z,25.20
2018-10-09T12:01:53.862Z,24.46
2018-10-09T12:04:21.686Z,24.46
2018-10-09T12:06:49.662Z,24.23
2018-10-09T12:09:17.487Z,24.53
2018-10-09T12:11:48.484Z,24.75
2018-10-09T12:14:16.279Z,24.34
2018-10-09T12:16:44.444Z,24.15
2018-10-09T12:19:12.310Z,24.44
2018-10-09T12:21:40.120Z,24.25
2018-10-09T12:24:07.957Z,24.37
2018-10-09T12:26:35.753Z,24.77
2018-10-09T12:29:03.609Z,25.02
2018-10-09T12:31:31.399Z,25.38
2018-10-09T12:33:59.232Z,25.64
2018-10-09T12:36:27.184Z,26.92
2018-10-09T12:38:54.960Z,27.54
2018-10-09T12:41:23.163Z,27.67
2018-10-09T12:43:50.950Z,27.65
2018-10-09T12:46:18.732Z,26.88
2018-10-09T12:48:46.543Z,26.47
2018-10-09T12:51:14.344Z,26.19
2018-10-09T12:53:42.184Z,26.14
2018-10-09T12:56:09.958Z,25.29
2018-10-09T12:58:37.842Z,24.89
2018-10-09T13:01:05.923Z,25.31
2018-10-09T13:03:33.764Z,25.63
2018-10-09T13:06:01.607Z,25.76
2018-10-09T13:08:29.385Z,26.27
2018-10-09T13:10:57.148Z,25.74
2018-10-09T13:13:25.030Z,26.25
2018-10-09T13:15:52.843Z,26.27
2018-10-09T13:18:20.671Z,25.89
2018-10-09T13:20:48.441Z,25.72
2018-10-09T13:23:16.222Z,25.42
2018-10-09T13:25:44.024Z,25.50
2018-10-09T13:28:11.837Z,25.94
2018-10-09T13:30:39.681Z,26.65
2018-10-09T13:33:07.845Z,26.24
2018-10-09T13:35:35.627Z,25.94
2018-10-09T13:38:03.467Z,25.72
2018-10-09T13:40:31.323Z,25.11
2018-10-09T13:42:59.116Z,25.06
2018-10-09T13:45:26.885Z,25.34
2018-10-09T13:47:54.673Z,25.44
2018-10-09T13:50:22.496Z,25.91
2018-10-09T13:52:50.396Z,25.50
2018-10-09T13:55:18.322Z,25.34
2018-10-09T13:57:46.036Z,24.73
2018-10-09T14:00:14.082Z,24.68
2018-10-09T14:02:41.840Z,24.42
2018-10-09T14:05:09.637Z,24.11
2018-10-09T14:07:37.456Z,23.55
2018-10-09T14:10:05.757Z,23.60
2018-10-09T14:12:33.524Z,23.48
2018-10-09T14:15:01.613Z,23.53
2018-10-09T14:17:29.341Z,24.21
2018-10-09T14:20:00.131Z,24.25
2018-10-09T14:22:28.130Z,24.02
2018-10-09T14:24:55.959Z,24.02
2018-10-09T14:27:23.825Z,24.21
2018-10-09T14:29:51.707Z,24.28
2018-10-09T14:32:19.642Z,24.05
2018-10-09T14:34:47.550Z,23.95
2018-10-09T14:40:25.743Z,24.17
2018-10-09T14:42:53.551Z,23.87
2018-10-09T14:45:21.314Z,23.38
2018-10-09T14:47:49.091Z,23.08
2018-10-09T14:50:16.871Z,23.35
2018-10-09T14:52:44.631Z,23.25
2018-10-09T14:55:12.420Z,22.82
2018-10-09T14:57:40.164Z,22.69
2018-10-09T15:00:09.587Z,22.73
2018-10-09T15:02:37.684Z,22.47
2018-10-09T15:05:05.566Z,22.44
2018-10-09T15:07:33.585Z,22.07
2018-10-09T15:10:01.345Z,22.11
2018-10-09T15:12:29.106Z,22.21
2018-10-09T15:14:56.915Z,21.88
2018-10-09T15:17:24.760Z,21.83
2018-10-09T15:19:59.088Z,21.80
2018-10-09T15:22:27.179Z,21.63
2018-10-09T15:24:54.961Z,21.82
2018-10-09T15:27:22.796Z,21.83
2018-10-09T15:29:50.588Z,21.63
2018-10-09T15:32:18.361Z,21.57
2018-10-09T15:34:46.121Z,21.48
2018-10-09T15:37:13.910Z,21.38
2018-10-09T15:39:41.642Z,21.32
2018-10-09T15:42:09.390Z,21.30
2018-10-09T15:44:37.259Z,21.33
2018-10-09T15:47:05.377Z,21.33
2018-10-09T15:49:33.095Z,21.10
2018-10-09T15:52:00.888Z,21.08
2018-10-09T15:54:28.629Z,20.97
2018-10-09T15:56:56.387Z,21.06
2018-10-09T15:59:24.291Z,20.91
2018-10-09T16:01:52.130Z,20.90
2018-10-09T16:04:20.084Z,20.92
2018-10-09T16:06:48.033Z,20.87
2018-10-09T16:09:15.899Z,20.74
2018-10-09T16:11:43.727Z,20.75
2018-10-09T16:14:11.508Z,20.61
2018-10-09T16:16:39.315Z,20.49
2018-10-09T16:19:07.127Z,20.32
2018-10-09T16:21:35.224Z,20.29
2018-10-09T16:24:03.017Z,20.26
2018-10-09T16:26:30.810Z,20.22
2018-10-09T16:28:58.622Z,20.15
2018-10-09T16:31:26.438Z,20.07
2018-10-09T16:33:57.524Z,20.00
2018-10-09T16:36:25.343Z,19.88
2018-10-09T16:38:53.201Z,19.76
2018-10-09T16:41:21.023Z,19.77
2018-10-09T16:43:48.835Z,19.70
2018-10-09T16:46:16.635Z,19.72
2018-10-09T16:48:44.384Z,19.67
2018-10-09T16:51:12.131Z,19.56
2018-10-09T16:53:39.915Z,19.49
2018-10-09T16:56:07.802Z,19.39
2018-10-09T16:58:35.532Z,19.35
2018-10-09T17:01:04.471Z,19.22
2018-10-09T17:03:32.227Z,19.18
2018-10-09T17:05:59.995Z,19.16
2018-10-09T17:08:27.908Z,19.09
2018-10-09T17:10:55.668Z,19.02
2018-10-09T17:13:23.722Z,18.98
2018-10-09T17:15:51.795Z,18.92
2018-10-09T17:18:19.599Z,18.85
2018-10-09T17:20:47.335Z,18.78
2018-10-09T17:23:15.193Z,18.69
2018-10-09T17:25:43.824Z,18.59
2018-10-09T17:28:11.663Z,18.49
2018-10-09T17:30:39.410Z,18.40
2018-10-09T17:33:07.225Z,18.30
2018-10-09T17:35:38.707Z,18.18
2018-10-09T17:38:06.559Z,18.14
2018-10-09T17:40:34.350Z,18.11
2018-10-09T17:43:02.188Z,18.09
2018-10-09T17:45:30.034Z,18.02
2018-10-09T17:47:57.919Z,17.91
2018-10-09T17:50:25.746Z,17.84
2018-10-09T17:52:53.572Z,17.81
2018-10-09T17:55:21.347Z,17.77
2018-10-09T17:57:49.117Z,17.71
2018-10-09T18:00:16.916Z,17.64
2018-10-09T18:02:45.124Z,17.51
2018-10-09T18:05:13.008Z,17.34
2018-10-09T18:07:40.816Z,17.29
2018-10-09T18:10:08.631Z,17.24
2018-10-09T18:12:36.508Z,17.05
2018-10-09T18:15:04.430Z,16.75
2018-10-09T18:17:32.572Z,16.50
2018-10-09T18:20:00.996Z,16.61
2018-10-09T18:22:28.784Z,16.67
2018-10-09T18:24:57.019Z,16.69
2018-10-09T18:27:24.972Z,16.58
2018-10-09T18:29:52.762Z,16.35
2018-10-09T18:32:20.629Z,16.16
2018-10-09T18:34:48.412Z,16.20
2018-10-09T18:37:16.203Z,16.26
2018-10-09T18:39:43.955Z,16.29
2018-10-09T18:42:11.739Z,16.25
2018-10-09T18:44:39.585Z,16.15
2018-10-09T18:47:12.004Z,16.11
2018-10-09T18:49:39.750Z,16.04
2018-10-09T18:52:07.595Z,15.78
2018-10-09T18:54:35.403Z,15.41
2018-10-09T18:57:03.260Z,15.40
2018-10-09T18:59:31.108Z,15.49
2018-10-09T19:01:58.863Z,15.53
2018-10-09T19:04:26.661Z,15.55
2018-10-09T19:06:54.528Z,15.50
2018-10-09T19:09:26.029Z,15.33
2018-10-09T19:11:53.807Z,15.28
2018-10-09T19:14:21.630Z,15.36
2018-10-09T19:16:49.459Z,15.34
2018-10-09T19:19:17.275Z,15.33
2018-10-09T19:21:45.383Z,15.29
2018-10-09T19:24:13.285Z,15.25
2018-10-09T19:26:41.136Z,15.18
2018-10-09T19:29:09.200Z,15.08
2018-10-09T19:31:37.067Z,15.00
2018-10-09T19:34:05.103Z,15.01
2018-10-09T19:36:32.886Z,15.05
2018-10-09T19:39:00.845Z,15.02
2018-10-09T19:41:28.628Z,15.00
2018-10-09T19:43:56.551Z,15.01
2018-10-09T19:46:24.362Z,14.99
2018-10-09T19:48:52.245Z,15.00
2018-10-09T19:51:20.304Z,14.96
2018-10-09T19:53:48.266Z,14.93
2018-10-09T19:56:16.138Z,14.97
2018-10-09T19:58:44.015Z,14.93
2018-10-09T20:01:12.161Z,14.87
2018-10-09T20:03:39.980Z,14.80
2018-10-09T20:06:07.781Z,14.76
2018-10-09T20:08:35.583Z,14.70
2018-10-09T20:11:03.466Z,14.67
2018-10-09T20:13:31.466Z,14.59
2018-10-09T20:15:59.403Z,14.55
2018-10-09T20:18:27.220Z,14.55
2018-10-09T20:20:55.432Z,14.52
2018-10-09T20:23:23.240Z,14.57
2018-10-09T20:25:54.886Z,14.57
2018-10-09T20:28:22.696Z,14.52
2018-10-09T20:30:50.547Z,14.51
2018-10-09T20:33:18.422Z,14.45
2018-10-09T20:35:46.435Z,14.40
2018-10-09T20:38:20.647Z,14.29
2018-10-09T20:40:48.439Z,14.24
2018-10-09T20:43:16.230Z,14.24
2018-10-09T20:45:47.080Z,14.26
2018-10-09T20:48:14.860Z,14.23
2018-10-09T20:50:42.650Z,14.25
2018-10-09T20:53:10.434Z,14.26
2018-10-09T20:55:38.329Z,14.27
2018-10-09T20:58:06.160Z,14.24
2018-10-09T21:00:34.231Z,14.26
2018-10-09T21:03:02.100Z,14.20
2018-10-09T21:05:30.193Z,14.18
2018-10-09T21:07:58.047Z,14.17
2018-10-09T21:10:25.879Z,14.14
2018-10-09T21:12:53.714Z,14.11
2018-10-09T21:15:21.483Z,14.14
2018-10-09T21:17:49.422Z,14.13
2018-10-09T21:20:17.031Z,14.10
2018-10-09T21:22:44.809Z,14.04
2018-10-09T21:25:12.672Z,14.01
2018-10-09T21:27:44.276Z,14.06
2018-10-09T21:30:12.058Z,14.08
2018-10-09T21:32:39.940Z,14.03
2018-10-09T21:35:07.875Z,14.08
2018-10-09T21:37:42.645Z,14.23
2018-10-09T21:40:10.451Z,14.19
2018-10-09T21:42:38.299Z,14.16
2018-10-09T21:45:06.092Z,14.17
2018-10-09T21:47:33.937Z,14.24
2018-10-09T21:50:01.820Z,14.24
2018-10-09T21:52:29.669Z,14.26
2018-10-09T21:54:57.767Z,14.20
2018-10-09T21:57:25.543Z,14.20
2018-10-09T21:59:53.337Z,14.23
2018-10-09T22:02:21.125Z,14.33
2018-10-09T22:04:48.907Z,14.32
2018-10-09T22:07:17.546Z,14.42
2018-10-09T22:09:45.475Z,14.45
2018-10-09T22:12:13.905Z,14.38
2018-10-09T22:14:41.803Z,14.39
2018-10-09T22:17:09.767Z,14.33
2018-10-09T22:19:37.743Z,14.39
2018-10-09T22:22:05.613Z,14.29
2018-10-09T22:24:33.622Z,14.26
2018-10-09T22:27:01.748Z,14.28
2018-10-09T22:29:29.567Z,14.17
2018-10-09T22:31:57.457Z,14.15
2018-10-09T22:34:25.190Z,14.00
2018-10-09T22:36:53.112Z,13.97
2018-10-09T22:39:20.948Z,13.91
2018-10-09T22:41:48.739Z,13.99
2018-10-09T22:44:16.850Z,14.08
2018-10-09T22:46:44.670Z,13.93
2018-10-09T22:49:12.463Z,13.75
2018-10-09T22:51:40.206Z,13.63
2018-10-09T22:54:08.030Z,13.63
2018-10-09T22:56:35.783Z,13.56
2018-10-09T22:59:03.748Z,13.59
2018-10-09T23:01:31.543Z,13.59
2018-10-09T23:03:59.438Z,13.60
2018-10-09T23:06:27.454Z,13.61
2018-10-09T23:08:55.362Z,13.57
2018-10-09T23:11:26.744Z,13.41
2018-10-09T23:13:54.604Z,13.30
2018-10-09T23:16:22.430Z,13.30
2018-10-09T23:18:50.257Z,13.21
2018-10-09T23:21:18.203Z,13.23
2018-10-09T23:23:46.012Z,13.27
2018-10-09T23:26:13.878Z,13.23
2018-10-09T23:28:41.679Z,13.19
2018-10-09T23:31:09.531Z,13.18
2018-10-09T23:33:37.517Z,13.11
2018-10-09T23:36:05.324Z,13.08
2018-10-09T23:38:33.167Z,13.07
2018-10-09T23:41:01.684Z,13.04
2018-10-09T23:43:29.493Z,13.05
2018-10-09T23:45:57.415Z,13.05
2018-10-09T23:48:25.471Z,13.02
2018-10-09T23:50:53.270Z,12.97
2018-10-09T23:53:21.170Z,12.98
2018-10-09T23:55:49.119Z,13.10
2018-10-09T23:58:16.907Z,13.11
